Latest Weather Observations for Perth Airport

IDW60801

Issued at 1:04 am WST Tuesday 23 May 2017 (issued every 30 minutes, with the page automatically refreshed every 10 minutes)

About weather observations | Map of weather stations | Latest weather observations for WA | Other Formats
Station Details ID: 009021 Name: PERTH AIRPORT Lat: -31.93 Lon: 115.98 Height: 15.4 m
Data from the previous 72 hours. | See also: Recent months at Perth Airport
Date/Time
WST
Temp
°C
App
Temp
°C
Dew
Point
°C
Rel
Hum
%
Delta-T
°C
Wind Press
QNH
hPa
Press
MSL
hPa
Rain since
9am
mm
Dir  Spd
km/h
Gust
km/h
Spd
kts
Gust
kts
23/12:30am 12.8 11.5 12.4 97 0.2 NE 11 13 6 7 1021.8 1021.8 0.8
23/12:00am 13.0 11.7 12.6 97 0.2 ENE 11 15 6 8 1022.0 1022.0 0.8
 
Date/Time
WST
Temp
°C
App
Temp
°C
Dew
Point
°C
Rel
Hum
%
Delta-T
°C
Wind Press
QNH
hPa
Press
MSL
hPa
Rain since
9am
mm
Dir  Spd
km/h
Gust
km/h
Spd
kts
Gust
kts
22/11:54pm 13.1 12.2 12.7 97 0.2 SE 9 13 5 7 1022.1 1022.1 0.8
22/11:30pm 12.9 11.2 12.3 96 0.3 NE 13 17 7 9 1022.0 1022.0 0.4
22/11:00pm 13.1 12.2 12.7 97 0.2 NNE 9 11 5 6 1022.3 1022.3 0.4
22/10:30pm 13.3 11.7 12.7 96 0.3 NNE 13 15 7 8 1022.5 1022.5 0.4
22/10:00pm 13.4 11.8 12.7 95 0.4 NE 13 15 7 8 1022.3 1022.3 0.4
22/09:36pm 13.7 13.1 12.4 92 0.7 NE 7 9 4 5 1022.4 1022.4 0.2
22/09:30pm 13.7 12.7 12.4 92 0.7 NE 9 13 5 7 1022.4 1022.4 0.2
22/09:00pm 13.7 12.7 12.2 91 0.8 NE 9 11 5 6 1022.4 1022.4 0.0
22/08:30pm 13.6 12.5 11.9 89 0.9 NE 9 13 5 7 1022.1 1022.1 0.0
22/08:00pm 13.3 11.8 11.8 91 0.8 NE 11 13 6 7 1021.7 1021.7 0.0
22/07:30pm 13.1 11.9 11.6 91 0.8 N 9 11 5 6 1021.5 1021.5 0.0
22/07:00pm 13.2 11.7 10.7 85 1.3 N 9 13 5 7 1021.2 1021.2 0.0
22/06:30pm 12.6 11.1 10.7 88 1.0 NNW 9 13 5 7 1021.0 1021.0 0.0
22/06:00pm 14.0 12.9 10.6 80 1.8 WNW 7 9 4 5 1020.5 1020.5 0.0
22/05:30pm 15.2 13.5 10.0 71 2.7 WNW 9 13 5 7 1020.2 1020.2 0.0
22/05:00pm 16.4 14.2 9.5 63 3.6 WNW 11 15 6 8 1020.2 1020.2 0.0
22/04:30pm 17.8 15.1 9.1 56 4.5 W 13 17 7 9 1020.0 1020.0 0.0
22/04:00pm 17.4 15.3 9.6 60 4.1 WNW 11 19 6 10 1019.7 1019.7 0.0
22/03:30pm 18.1 15.4 8.8 54 4.8 WNW 13 19 7 10 1019.6 1019.6 0.0
22/03:00pm 17.4 14.7 8.9 57 4.4 WSW 13 20 7 11 1019.7 1019.7 0.0
22/02:30pm 17.3 13.7 8.5 56 4.5 SW 17 24 9 13 1019.5 1019.5 0.0
22/02:00pm 17.9 14.9 7.8 51 5.1 W 13 19 7 10 1019.3 1019.3 0.0
22/01:30pm 18.8 16.5 7.6 48 5.7 NW 9 17 5 9 1019.1 1019.1 0.0
22/01:00pm 18.3 16.2 8.4 52 5.1 NW 9 15 5 8 1019.2 1019.2 0.0
22/12:30pm 17.7 15.1 9.3 58 4.4 N 13 19 7 10 1019.4 1019.4 0.0
22/12:00pm 17.0 14.2 10.0 63 3.7 NNE 15 20 8 11 1019.7 1019.7 0.0
22/11:30am 16.2 14.4 9.4 64 3.5 NNE 9 15 5 8 1020.1 1020.1 0.0
22/11:00am 15.6 14.4 10.3 70 2.8 NNE 7 11 4 6 1020.3 1020.3 0.0
22/10:30am 14.0 13.0 11.0 82 1.6 N 7 11 4 6 1020.3 1020.3 0.0
22/10:00am 13.8 12.2 11.5 86 1.2 NNE 11 11 6 6 1020.2 1020.2 0.0
22/09:30am 12.9 12.0 11.2 89 0.9 N 7 11 4 6 1020.1 1020.1 0.0
22/09:00am 12.5 11.3 10.4 87 1.1 NE 7 11 4 6 1019.9 1019.9 4.0
22/08:30am 11.6 10.1 10.4 92 0.6 NNE 9 9 5 5 1019.3 1019.3 4.0
22/08:00am 9.3 7.7 8.9 97 0.2 NNE 7 11 4 6 1019.1 1019.1 4.0
22/07:30am 9.0 7.0 8.6 97 0.2 NNE 9 13 5 7 1018.8 1018.8 4.0
22/07:00am 9.1 6.8 8.9 99 0.1 NNE 11 15 6 8 1018.4 1018.4 4.0
22/06:30am 9.3 7.0 8.9 97 0.2 NNE 11 13 6 7 1018.2 1018.2 4.0
22/06:00am 8.8 6.7 8.4 97 0.2 NNE 9 9 5 5 1017.9 1017.9 4.0
22/05:30am 8.9 7.2 8.5 97 0.2 NE 7 9 4 5 1017.7 1017.7 4.0
22/05:00am 8.7 6.6 8.3 97 0.2 NE 9 11 5 6 1017.2 1017.2 4.0
22/04:30am 8.5 6.7 8.1 97 0.2 NNE 7 11 4 6 1017.0 1017.0 3.8
22/04:00am 8.3 6.5 8.1 99 0.1 NNE 7 13 4 7 1017.0 1017.0 3.8
22/03:30am 8.4 6.2 8.0 97 0.2 NE 9 13 5 7 1016.7 1016.7 3.8
22/03:00am 8.1 6.0 8.1 100 0.0 NE 9 11 5 6 1016.7 1016.7 3.8
22/02:30am 8.3 5.4 8.1 99 0.1 N 13 17 7 9 1016.4 1016.4 3.8
22/02:00am 8.4 6.3 8.2 99 0.1 NNE 9 11 5 6 1016.1 1016.1 3.8
22/01:30am 8.4 6.7 8.2 99 0.1 N 7 13 4 7 1016.1 1016.1 3.8
22/01:00am 8.4 6.6 8.0 97 0.2 NNE 7 9 4 5 1015.8 1015.8 3.6
22/12:30am 8.6 6.5 8.2 97 0.2 ENE 9 11 5 6 1015.6 1015.6 3.6
22/12:00am 9.0 6.6 8.8 99 0.1 NE 11 17 6 9 1015.5 1015.5 3.6
 
Date/Time
WST
Temp
°C
App
Temp
°C
Dew
Point
°C
Rel
Hum
%
Delta-T
°C
Wind Press
QNH
hPa
Press
MSL
hPa
Rain since
9am
mm
Dir  Spd
km/h
Gust
km/h
Spd
kts
Gust
kts
21/11:30pm 8.5 7.7 8.1 97 0.2 NE 2 7 1 4 1015.4 1015.4 3.6
21/11:00pm 9.4 7.2 9.2 99 0.1 NE 11 15 6 8 1015.1 1015.1 3.6
21/10:30pm 9.2 7.6 8.8 97 0.2 NE 7 11 4 6 1015.1 1015.1 3.6
21/10:00pm 10.2 9.9 10.0 99 0.1 NNW 2 7 1 4 1015.0 1015.0 3.6
21/09:43pm 10.3 10.3 9.9 97 0.2 CALM 0 6 0 3 1015.0 1015.0 3.2
21/09:39pm 10.1 9.4 9.9 99 0.1 E 4 9 2 5 1015.0 1015.0 2.8
21/09:30pm 10.0 8.3 9.8 99 0.1 E 9 11 5 6 1014.5 1014.5 2.8
21/09:00pm 10.2 8.5 9.8 97 0.2 E 9 11 5 6 1014.5 1014.5 2.8
21/08:30pm 11.4 10.3 10.6 95 0.4 SSW 7 9 4 5 1014.2 1014.2 2.8
21/08:00pm 10.9 11.0 10.3 96 0.3 CALM 0 4 0 2 1013.6 1013.6 2.2
21/07:30pm 11.8 10.4 10.8 94 0.5 WNW 9 11 5 6 1013.5 1013.5 2.2
21/07:00pm 11.8 9.9 10.6 92 0.6 SSE 11 15 6 8 1012.8 1012.8 1.6
21/06:30pm 12.0 10.0 10.0 87 1.0 SSE 11 13 6 7 1012.3 1012.3 1.6
21/06:00pm 12.5 9.8 10.2 86 1.2 S 15 17 8 9 1011.9 1011.9 1.6
21/05:30pm 13.0 10.6 10.1 82 1.5 SW 13 19 7 10 1011.5 1011.5 1.6
21/05:00pm 14.1 10.3 9.0 71 2.6 SSW 19 26 10 14 1011.3 1011.3 1.2
21/04:30pm 14.9 10.3 8.1 64 3.4 SW 22 30 12 16 1010.7 1010.7 1.2
21/04:00pm 14.8 9.4 8.2 64 3.3 SW 26 37 14 20 1010.4 1010.4 1.2
21/03:30pm 14.6 9.3 8.5 67 3.1 SW 26 33 14 18 1010.0 1010.0 1.2
21/03:05pm 16.2 9.9 7.4 56 4.4 SW 30 52 16 28 1009.4 1009.4 1.0
21/03:00pm 17.0 10.8 7.7 54 4.7 SW 30 39 16 21 1009.3 1009.3 1.0
21/02:30pm 16.2 9.2 8.3 59 4.0 SW 35 46 19 25 1009.0 1009.0 1.0
21/02:24pm 16.2 10.5 8.3 59 4.0 WSW 28 46 15 25 1008.9 1008.9 1.0
21/02:00pm 14.6 11.6 12.0 84 1.4 SW 19 30 10 16 1008.7 1008.7 1.0
21/01:30pm 14.7 11.1 11.9 83 1.5 SW 22 33 12 18 1008.5 1008.5 1.0
21/01:02pm 15.1 11.0 11.6 79 1.9 SW 24 30 13 16 1008.3 1008.3 0.8
21/01:00pm 15.6 11.9 11.5 76 2.2 SW 22 30 12 16 1008.2 1008.2 0.8
21/12:30pm 15.4 9.2 11.3 76 2.2 SW 35 46 19 25 1008.2 1008.2 0.8
21/12:11pm 15.4 9.6 11.5 77 2.1 SW 33 54 18 29 1008.0 1008.0 0.8
21/12:00pm 17.1 12.1 10.8 66 3.4 SW 28 35 15 19 1007.7 1007.7 0.8
21/11:30am 17.1 11.2 10.3 64 3.6 SW 32 41 17 22 1007.7 1007.7 0.8
21/11:00am 16.7 12.1 12.4 76 2.4 SW 28 35 15 19 1007.4 1007.4 0.8
21/10:30am 15.9 13.2 13.4 85 1.4 SSW 20 30 11 16 1007.2 1007.2 0.8
21/10:00am 14.8 13.0 13.2 90 0.9 WSW 15 26 8 14 1007.3 1007.3 0.6
21/09:30am 14.7 11.7 12.5 87 1.2 SW 20 32 11 17 1006.9 1006.9 0.2
21/09:15am 14.9 11.7 13.1 89 1.0 WSW 22 37 12 20 1006.9 1006.9 0.2
21/09:00am 14.8 11.2 13.2 90 0.9 WSW 24 39 13 21 1006.6 1006.6 14.2
21/08:58am 14.8 10.5 13.2 90 0.9 WSW 28 46 15 25 1006.6 1006.6 14.2
21/08:48am 16.6 12.4 12.4 76 2.3 WSW 26 46 14 25 1006.3 1006.3 13.6
21/08:30am 15.1 13.1 12.6 85 1.4 W 15 20 8 11 1005.8 1005.8 13.6
21/08:00am 14.6 11.6 12.4 87 1.2 W 20 35 11 19 1006.0 1006.0 13.6
21/07:48am 14.6 10.8 12.4 87 1.2 W 24 50 13 27 1005.9 1005.9 13.2
21/07:43am 15.6 13.1 9.7 68 3.1 NW 13 30 7 16 1005.4 1005.4 12.6
21/07:30am 14.9 12.3 9.5 70 2.8 WNW 13 19 7 10 1005.2 1005.2 12.6
21/07:00am 15.6 11.7 8.5 62 3.6 W 19 32 10 17 1005.2 1005.2 12.6
21/06:30am 15.8 11.6 8.1 60 3.9 W 20 35 11 19 1004.8 1004.8 12.6
21/06:00am 15.4 10.6 9.0 65 3.3 W 24 37 13 20 1004.5 1004.5 12.6
21/05:40am 15.5 11.6 10.8 73 2.5 W 22 48 12 26 1004.4 1004.4 12.6
21/05:30am 14.6 14.0 13.5 93 0.6 WNW 9 13 5 7 1004.3 1004.3 12.6
21/05:00am 14.4 12.2 13.3 93 0.6 WNW 17 26 9 14 1004.0 1004.0 12.4
21/04:30am 14.5 11.1 13.6 94 0.5 NW 24 32 13 17 1004.1 1004.1 11.0
21/04:23am 14.4 10.9 13.3 93 0.6 WNW 24 41 13 22 1004.2 1004.2 10.8
21/04:00am 14.0 10.7 12.7 92 0.7 WNW 22 35 12 19 1004.3 1004.3 9.6
21/03:59am 14.0 10.7 12.7 92 0.7 WNW 22 35 12 19 1004.3 1004.3 9.6
21/03:45am 13.9 11.9 12.8 93 0.6 WNW 15 26 8 14 1004.6 1004.6 8.8
21/03:30am 13.0 10.5 12.3 95 0.4 W 17 30 9 16 1005.1 1005.1 7.8
21/03:19am 12.5 9.3 11.9 96 0.3 NE 20 26 11 14 1004.4 1004.4 6.8
21/03:00am 12.2 8.6 11.8 97 0.2 NE 22 30 12 16 1004.7 1004.7 6.8
21/02:38am 12.1 10.2 11.7 97 0.2 NNE 13 26 7 14 1005.4 1005.4 6.8
21/02:30am 12.2 11.0 11.6 96 0.3 N 9 19 5 10 1005.5 1005.5 5.6
21/02:26am 12.2 9.9 11.6 96 0.3 NNE 15 22 8 12 1005.4 1005.4 5.0
21/02:00am 12.1 8.8 11.5 96 0.3 NNE 20 26 11 14 1005.5 1005.5 4.8
21/01:41am 12.0 8.8 11.2 95 0.4 NNE 19 24 10 13 1005.8 1005.8 4.4
21/01:30am 12.0 8.8 11.2 95 0.4 N 19 24 10 13 1006.0 1006.0 4.2
21/01:11am 12.0 9.5 11.0 94 0.5 N 15 20 8 11 1006.2 1006.2 4.2
21/01:00am 12.0 9.1 11.0 94 0.5 NNE 17 22 9 12 1006.2 1006.2 4.0
21/12:30am 11.9 8.7 11.1 95 0.4 N 19 26 10 14 1006.7 1006.7 3.6
21/12:26am 12.0 8.7 11.0 94 0.5 N 19 26 10 14 1006.8 1006.8 3.6
21/12:00am 12.0 8.7 10.9 93 0.6 NNE 19 26 10 14 1007.0 1007.0 2.4
 
Date/Time
WST
Temp
°C
App
Temp
°C
Dew
Point
°C
Rel
Hum
%
Delta-T
°C
Wind Press
QNH
hPa
Press
MSL
hPa
Rain since
9am
mm
Dir  Spd
km/h
Gust
km/h
Spd
kts
Gust
kts
20/11:57pm 12.0 8.6 10.7 92 0.7 NNE 19 26 10 14 1007.0 1007.0 2.2
20/11:30pm 11.9 8.5 10.7 92 0.6 NNE 19 24 10 13 1007.3 1007.3 2.2
20/11:00pm 12.0 8.7 10.9 93 0.6 NNE 19 24 10 13 1007.8 1007.8 2.2
20/10:30pm 12.0 8.7 11.0 94 0.5 NNE 19 22 10 12 1008.5 1008.5 2.2
20/10:00pm 12.2 9.8 11.4 95 0.4 NNE 15 19 8 10 1009.0 1009.0 2.2
20/09:30pm 12.6 10.7 11.9 95 0.4 N 13 24 7 13 1009.6 1009.6 2.0
20/09:12pm 12.9 10.7 12.0 94 0.5 NNE 15 26 8 14 1009.8 1009.8 1.2
20/09:00pm 12.9 10.7 12.2 95 0.4 NNE 15 17 8 9 1009.9 1009.9 1.2
20/08:30pm 13.3 11.3 12.6 95 0.4 N 15 19 8 10 1010.2 1010.2 1.2
20/08:00pm 13.1 11.0 12.5 96 0.3 NE 15 24 8 13 1010.3 1010.3 0.4
20/07:30pm 13.3 11.6 12.6 95 0.4 NE 13 17 7 9 1010.5 1010.5 0.4
20/07:00pm 13.2 12.1 11.9 92 0.7 NNE 9 11 5 6 1010.6 1010.6 0.2
20/06:30pm 13.3 11.4 11.8 91 0.8 NNE 13 17 7 9 1010.7 1010.7 0.2
20/06:00pm 13.2 11.8 12.3 94 0.5 NE 11 15 6 8 1010.8 1010.8 0.0
20/05:30pm 13.2 12.2 12.3 94 0.5 ENE 9 13 5 7 1010.9 1010.9 0.0
20/05:00pm 14.0 12.6 12.3 89 0.9 ENE 11 13 6 7 1011.1 1011.1 0.0
20/04:50pm 14.3 13.7 12.3 88 1.1 NE 7 17 4 9 1011.2 1011.2 0.0
20/04:30pm 14.2 13.3 12.7 91 0.8 NNW 9 11 5 6 1011.7 1011.7 0.0
20/04:00pm 14.8 12.4 11.4 80 1.8 NNE 15 19 8 10 1011.7 1011.7 0.0
20/03:30pm 15.4 13.7 11.3 76 2.2 ENE 11 17 6 9 1011.5 1011.5 0.0
20/03:00pm 15.1 13.8 11.4 78 2.0 ENE 9 11 5 6 1011.7 1011.7 0.0
20/02:30pm 14.9 13.9 10.9 77 2.1 NNE 7 11 4 6 1011.8 1011.8 0.0
20/02:00pm 14.3 12.2 11.1 81 1.7 NNE 13 15 7 8 1012.1 1012.1 0.0
20/01:30pm 14.8 12.4 10.2 74 2.4 E 13 17 7 9 1012.4 1012.4 0.0
20/01:00pm 14.5 12.5 10.3 76 2.2 E 11 17 6 9 1012.9 1012.9 0.0
20/12:30pm 14.1 11.5 10.7 80 1.8 NE 15 19 8 10 1013.5 1013.5 0.0
20/12:00pm 14.6 11.3 9.6 72 2.6 NE 17 20 9 11 1014.0 1014.0 0.0
20/11:30am 14.6 10.6 9.1 69 2.8 NE 20 26 11 14 1014.3 1014.3 0.0
20/11:00am 14.9 10.8 8.8 67 3.1 NE 20 28 11 15 1014.9 1014.9 0.0
20/10:30am 14.4 11.5 9.8 74 2.4 ENE 15 20 8 11 1014.9 1014.9 0.0
20/10:00am 13.6 10.7 9.7 77 2.0 NE 15 20 8 11 1015.3 1015.3 0.0
20/09:30am 13.5 12.4 9.8 78 1.9 E 6 11 3 6 1015.4 1015.4 0.0
20/09:00am 12.9 11.3 10.2 84 1.4 ENE 9 11 5 6 1015.0 1015.0 7.4
20/08:30am 12.2 10.7 10.5 89 0.9 ENE 9 13 5 7 1014.8 1014.8 7.4
20/08:00am 11.7 9.4 10.5 92 0.6 ENE 13 17 7 9 1014.4 1014.4 7.2
20/07:30am 11.3 8.9 10.1 92 0.6 NNE 13 15 7 8 1014.3 1014.3 7.2
20/07:00am 11.4 9.0 10.0 91 0.7 NW 13 17 7 9 1014.4 1014.4 7.2
20/06:30am 10.8 10.0 9.6 92 0.6 E 4 7 2 4 1013.9 1013.9 7.2
20/06:00am 10.5 8.7 9.5 93 0.5 ESE 9 9 5 5 1013.7 1013.7 7.2
20/05:30am 10.0 8.2 9.4 96 0.3 E 9 11 5 6 1013.7 1013.7 7.2
20/05:00am 10.1 9.6 9.3 95 0.4 ESE 2 9 1 5 1013.8 1013.8 7.2
20/04:30am 11.3 9.5 9.5 89 0.9 SE 9 13 5 7 1013.7 1013.7 7.2
20/04:00am 12.7 9.8 9.6 81 1.6 S 15 19 8 10 1013.8 1013.8 7.2
20/03:30am 12.3 12.4 11.5 95 0.4 S 2 7 1 4 1014.0 1014.0 7.2
20/03:00am 12.4 11.1 11.3 93 0.6 S 9 9 5 5 1013.7 1013.7 7.2
20/02:30am 13.6 12.8 11.7 88 1.0 S 7 9 4 5 1013.6 1013.6 7.2
20/02:00am 13.3 13.2 12.2 93 0.6 SSW 4 7 2 4 1013.6 1013.6 7.2
20/01:30am 13.3 12.2 12.0 92 0.7 S 9 11 5 6 1013.4 1013.4 7.2

Other Formats:

Comma delimited format used in spreadsheet applications
http://www.bom.gov.au/fwo/IDW60801/IDW60801.94610.axf

JavaScript Object Notation format (JSON) in row-major order
http://www.bom.gov.au/fwo/IDW60801/IDW60801.94610.json